Time;durP1;ratioP1;P1;durP2;ratioP2;P2;SDS_P1;SDS_P2;PMS_P1;PMS_P2;Temp;Humidity;BMP_temperature;BMP_pressure;BME280_temperature;BME280_humidity;BME280_pressure;Samples;Min_cycle;Max_cycle;Signal;HPM_P1;HPM_P2
2020/12/12 00:02:21;;;;;;;1.70;1.60;;;;;;;2.81;92.24;99459.31;5055462;28;20446;-66
2020/12/12 00:04:48;;;;;;;7.10;2.30;;;;;;;2.84;92.30;99463.31;5055593;28;20824;-65
2020/12/12 00:07:14;;;;;;;4.53;1.53;;;;;;;2.84;92.75;99457.97;5056031;28;20478;-65
2020/12/12 00:09:41;;;;;;;0.90;0.63;;;;;;;2.80;93.59;99462.25;5055498;28;20445;-66
2020/12/12 00:12:07;;;;;;;7.30;1.73;;;;;;;2.78;93.74;99451.81;5055137;28;20453;-66
2020/12/12 00:14:33;;;;;;;0.43;0.40;;;;;;;2.81;94.00;99453.97;5055996;28;20578;-66
2020/12/12 00:16:59;;;;;;;0.73;0.73;;;;;;;2.78;94.17;99455.28;5056143;28;20499;-66
2020/12/12 00:19:25;;;;;;;0.40;0.30;;;;;;;2.82;94.16;99454.75;5055987;28;20446;-65
2020/12/12 00:21:53;;;;;;;0.60;0.60;;;;;;;2.85;93.77;99451.53;5055346;28;20447;-65
2020/12/12 00:24:22;;;;;;;0.60;0.60;;;;;;;2.85;93.89;99451.53;5055880;28;20555;-65
2020/12/12 00:26:48;;;;;;;2.50;2.30;;;;;;;2.78;94.37;99452.63;5055260;28;21056;-64
2020/12/12 00:29:16;;;;;;;0.87;0.60;;;;;;;2.83;94.46;99451.00;5056153;28;20490;-65
2020/12/12 00:31:43;;;;;;;3.47;1.70;;;;;;;2.79;94.08;99448.09;5055841;28;20533;-65
2020/12/12 00:34:10;;;;;;;3.57;1.50;;;;;;;2.74;94.37;99446.22;5056081;28;20443;-66
2020/12/12 00:36:39;;;;;;;0.40;0.37;;;;;;;2.78;94.20;99449.94;5055975;28;20503;-66
2020/12/12 00:39:06;;;;;;;9.07;1.60;;;;;;;2.73;94.49;99441.97;5055446;28;20490;-66
2020/12/12 00:41:36;;;;;;;7.73;2.80;;;;;;;2.70;94.03;99439.88;5055853;28;20801;-65
2020/12/12 00:44:04;;;;;;;4.10;2.27;;;;;;;2.68;93.29;99435.84;5055402;28;20489;-65
2020/12/12 00:46:31;;;;;;;6.93;1.80;;;;;;;2.59;93.52;99440.19;5055613;28;20604;-65
2020/12/12 00:48:57;;;;;;;0.40;0.30;;;;;;;2.56;93.82;99433.50;5055614;28;20457;-65
2020/12/12 00:51:23;;;;;;;5.07;1.20;;;;;;;2.50;93.98;99439.97;5055915;28;20875;-65
2020/12/12 00:53:50;;;;;;;3.17;1.50;;;;;;;2.40;94.22;99435.50;5056138;28;20495;-66
2020/12/12 00:56:18;;;;;;;5.30;1.37;;;;;;;2.42;94.00;99440.53;5056119;28;20495;-66
2020/12/12 00:58:44;;;;;;;1.77;1.67;;;;;;;2.40;94.51;99437.38;5056361;28;20465;-67
2020/12/12 01:01:11;;;;;;;0.80;0.80;;;;;;;2.37;93.96;99437.91;5056066;28;20499;-66
2020/12/12 01:03:37;;;;;;;1.10;1.10;;;;;;;2.27;93.83;99439.56;5055209;28;20482;-66
2020/12/12 01:06:04;;;;;;;3.93;3.67;;;;;;;2.21;94.59;99435.31;5056349;28;20481;-66
2020/12/12 01:08:31;;;;;;;4.20;1.90;;;;;;;2.28;94.28;99430.47;5055459;28;20502;-65
2020/12/12 01:10:57;;;;;;;2.40;0.80;;;;;;;2.17;94.56;99431.59;5054985;28;20446;-66
2020/12/12 01:13:24;;;;;;;10.63;2.10;;;;;;;2.23;95.56;99429.69;5055666;28;20441;-66
2020/12/12 01:15:50;;;;;;;1.60;0.93;;;;;;;2.23;96.10;99435.84;5055776;28;20438;-65
2020/12/12 01:18:16;;;;;;;1.73;1.10;;;;;;;2.30;96.24;99432.84;5056316;28;20511;-66
2020/12/12 01:20:42;;;;;;;0.50;0.50;;;;;;;2.24;96.38;99433.97;5056554;28;20426;-66
2020/12/12 01:23:09;;;;;;;2.30;2.10;;;;;;;2.24;96.66;99434.75;5057533;28;20449;-66
2020/12/12 01:25:37;;;;;;;1.13;0.97;;;;;;;2.23;96.23;99438.50;5059653;28;21009;-67
2020/12/12 01:28:04;;;;;;;2.40;2.13;;;;;;;2.24;96.55;99437.41;5059482;28;20467;-67
2020/12/12 01:30:31;;;;;;;3.00;1.80;;;;;;;2.17;96.93;99438.78;5060348;28;20437;-65
2020/12/12 01:32:57;;;;;;;0.40;0.30;;;;;;;2.20;96.95;99444.38;5089015;22;20488;-70
2020/12/12 01:35:23;;;;;;;1.20;0.60;;;;;;;2.27;96.67;99439.56;5076061;28;20957;-70
2020/12/12 01:37:51;;;;;;;0.80;0.80;;;;;;;2.22;97.00;99447.59;5075220;28;20844;-69
2020/12/12 01:40:17;;;;;;;1.90;1.47;;;;;;;2.22;96.80;99446.81;5075421;28;20880;-67
2020/12/12 01:42:43;;;;;;;2.93;2.67;;;;;;;2.24;96.68;99449.97;5075510;28;20472;-67
2020/12/12 01:45:10;;;;;;;8.13;1.70;;;;;;;2.19;96.87;99448.13;5075803;28;20468;-68
2020/12/12 01:47:39;;;;;;;0.77;0.67;;;;;;;2.19;96.30;99444.66;5075382;28;20885;-68
2020/12/12 01:50:07;;;;;;;1.07;1.07;;;;;;;2.13;95.76;99438.56;5075872;28;20929;-68
2020/12/12 01:52:33;;;;;;;40.00;2.87;;;;;;;2.09;94.66;99440.16;5075729;28;20466;-67
2020/12/12 01:55:00;;;;;;;0.50;0.50;;;;;;;2.05;94.49;99435.66;5076093;28;20464;-68
2020/12/12 01:57:27;;;;;;;2.07;1.97;;;;;;;2.01;94.63;99448.75;5076054;28;20469;-68
2020/12/12 01:59:53;;;;;;;4.07;2.83;;;;;;;1.96;94.26;99438.88;5075698;28;20858;-68
2020/12/12 02:02:21;;;;;;;1.80;1.70;;;;;;;1.96;94.27;99438.88;5075880;28;20505;-67
2020/12/12 02:04:49;;;;;;;2.40;1.53;;;;;;;1.92;94.20;99437.03;5075941;28;20437;-68
2020/12/12 02:07:17;;;;;;;0.50;0.47;;;;;;;1.90;94.24;99439.94;5075807;28;20541;-68
2020/12/12 02:09:44;;;;;;;22.70;1.77;;;;;;;1.89;94.08;99445.56;5075837;28;20435;-68
2020/12/12 02:12:11;;;;;;;2.93;2.37;;;;;;;1.86;94.28;99438.91;5075811;28;20440;-67
2020/12/12 02:14:38;;;;;;;1.43;1.33;;;;;;;1.83;94.13;99430.66;5075383;28;20488;-68
2020/12/12 02:17:05;;;;;;;1.03;0.93;;;;;;;1.80;95.15;99433.84;5075628;28;20449;-68
2020/12/12 02:19:32;;;;;;;4.43;2.37;;;;;;;1.80;95.91;99431.97;5075380;28;20953;-68
2020/12/12 02:22:00;;;;;;;1.63;1.53;;;;;;;1.82;96.33;99426.38;5075650;28;20513;-68
2020/12/12 02:24:29;;;;;;;2.37;1.60;;;;;;;1.85;96.36;99426.63;5075521;28;20490;-68
2020/12/12 02:26:56;;;;;;;0.80;0.80;;;;;;;1.89;96.69;99433.00;5075449;28;20849;-68
2020/12/12 02:29:25;;;;;;;2.97;2.17;;;;;;;1.91;96.81;99432.75;5075526;28;20863;-68
2020/12/12 02:31:51;;;;;;;3.23;1.27;;;;;;;1.88;97.24;99436.75;5075441;28;20447;-68
2020/12/12 02:34:17;;;;;;;1.37;0.83;;;;;;;1.83;97.46;99438.66;5074324;28;20512;-67
2020/12/12 02:36:44;;;;;;;1.60;0.80;;;;;;;1.90;97.48;99436.47;5075351;28;20438;-68
2020/12/12 02:39:13;;;;;;;5.53;2.33;;;;;;;1.89;97.53;99434.88;5074991;28;20445;-68
2020/12/12 02:41:39;;;;;;;0.83;0.80;;;;;;;1.90;97.70;99431.13;5074986;28;20479;-68
2020/12/12 02:44:06;;;;;;;1.43;1.33;;;;;;;1.89;97.38;99437.56;5075148;28;20457;-68
2020/12/12 02:46:32;;;;;;;1.10;1.00;;;;;;;1.97;97.41;99435.13;5074803;28;20545;-68
2020/12/12 02:48:58;;;;;;;1.27;1.17;;;;;;;1.94;97.35;99430.31;5074839;28;20469;-68
2020/12/12 02:51:24;;;;;;;5.10;1.47;;;;;;;1.96;96.88;99438.09;5075198;28;20437;-67
2020/12/12 02:53:51;;;;;;;1.83;1.73;;;;;;;1.93;97.13;99438.63;5074665;28;20879;-68
2020/12/12 02:56:19;;;;;;;0.80;0.80;;;;;;;1.98;97.52;99428.72;5074972;28;20861;-68
2020/12/12 02:58:45;;;;;;;28.97;2.30;;;;;;;2.01;97.34;99430.06;5074955;28;20496;-67
2020/12/12 03:01:11;;;;;;;6.13;1.60;;;;;;;1.99;97.08;99434.84;5074909;28;20502;-67
2020/12/12 03:03:37;;;;;;;1.67;0.90;;;;;;;1.97;96.35;99429.00;5074477;28;20492;-67
2020/12/12 03:06:04;;;;;;;2.00;0.87;;;;;;;1.92;96.57;99427.16;5074703;28;20480;-67
2020/12/12 03:08:31;;;;;;;1.77;1.67;;;;;;;1.90;96.47;99423.13;5074765;28;20496;-67
2020/12/12 03:10:57;;;;;;;1.33;1.17;;;;;;;1.91;96.41;99430.09;5074660;28;20492;-67
2020/12/12 03:13:24;;;;;;;0.57;0.57;;;;;;;1.92;95.86;99421.00;5074563;28;20516;-67
2020/12/12 03:15:50;;;;;;;7.27;1.93;;;;;;;1.90;95.61;99426.59;5074581;28;20467;-67
2020/12/12 03:18:16;;;;;;;0.67;0.60;;;;;;;1.88;95.71;99426.09;5074243;28;20533;-67
2020/12/12 03:20:42;;;;;;;2.20;2.00;;;;;;;1.89;96.05;99424.22;5074184;28;20468;-68
2020/12/12 03:23:08;;;;;;;2.70;2.50;;;;;;;1.89;95.76;99421.53;5074035;28;21051;-68
2020/12/12 03:25:35;;;;;;;0.90;0.87;;;;;;;1.87;96.19;99413.81;5074307;28;20434;-68
2020/12/12 03:28:01;;;;;;;5.23;2.80;;;;;;;1.78;97.04;99423.47;5073970;28;20444;-68
2020/12/12 03:30:28;;;;;;;1.17;1.07;;;;;;;1.84;97.24;99426.91;5073993;28;20438;-68
2020/12/12 03:32:54;;;;;;;1.43;1.33;;;;;;;1.90;96.74;99417.78;5073971;28;20888;-68
2020/12/12 03:35:20;;;;;;;8.53;1.10;;;;;;;1.89;97.10;99421.53;5074219;28;20423;-68
2020/12/12 03:37:46;;;;;;;1.80;0.80;;;;;;;1.92;97.88;99419.13;5074153;28;20502;-68
2020/12/12 03:40:13;;;;;;;9.33;2.40;;;;;;;1.98;98.19;99419.91;5073758;28;20462;-67
2020/12/12 03:42:39;;;;;;;1.23;1.13;;;;;;;2.01;97.99;99419.38;5073988;28;20518;-68
2020/12/12 03:45:05;;;;;;;2.73;1.73;;;;;;;2.08;97.92;99422.56;5073898;28;20434;-68
2020/12/12 03:47:32;;;;;;;0.80;0.60;;;;;;;2.08;97.71;99435.91;5073876;28;20525;-68
2020/12/12 03:49:58;;;;;;;0.60;0.60;;;;;;;2.05;97.87;99428.44;5073585;28;20441;-68
2020/12/12 03:52:24;;;;;;;0.60;0.60;;;;;;;2.08;98.24;99435.91;5073514;28;20480;-68
2020/12/12 03:54:50;;;;;;;2.73;1.63;;;;;;;2.13;97.73;99430.53;5073563;28;20531;-68
2020/12/12 03:57:17;;;;;;;2.20;1.70;;;;;;;2.11;97.96;99432.66;5073491;28;20465;-68
2020/12/12 03:59:43;;;;;;;3.27;1.07;;;;;;;2.16;97.83;99429.19;5073457;28;20447;-68
2020/12/12 04:02:09;;;;;;;1.50;1.40;;;;;;;2.13;97.89;99427.88;5073646;28;20489;-68
2020/12/12 04:04:36;;;;;;;1.63;1.50;;;;;;;2.07;97.99;99436.97;5073607;28;20457;-69
2020/12/12 04:07:02;;;;;;;2.20;1.67;;;;;;;2.15;98.16;99436.41;5073196;28;20546;-69
2020/12/12 04:09:28;;;;;;;4.30;1.23;;;;;;;2.20;97.73;99439.03;5073589;28;20491;-68
2020/12/12 04:11:54;;;;;;;0.70;0.70;;;;;;;2.09;97.94;99426.03;5073566;28;20441;-69
2020/12/12 04:14:21;;;;;;;0.40;0.33;;;;;;;2.13;97.41;99432.41;5073175;28;20489;-69
2020/12/12 04:16:49;;;;;;;1.53;1.43;;;;;;;2.04;96.90;99424.16;5073176;28;20527;-67
2020/12/12 04:19:15;;;;;;;0.90;0.87;;;;;;;2.07;96.66;99436.97;5073118;28;20822;-67
2020/12/12 04:21:42;;;;;;;3.23;1.27;;;;;;;2.05;96.68;99431.09;5073440;28;20433;-67
2020/12/12 04:24:08;;;;;;;0.70;0.60;;;;;;;2.00;96.83;99428.47;5073258;28;20457;-67
2020/12/12 04:26:34;;;;;;;2.50;2.40;;;;;;;2.05;96.67;99425.75;5073301;28;20511;-67
2020/12/12 04:29:00;;;;;;;2.80;2.13;;;;;;;1.99;96.90;99426.84;5073325;28;20440;-68
2020/12/12 04:31:27;;;;;;;1.33;1.27;;;;;;;2.01;97.44;99427.38;5073365;28;20491;-67
2020/12/12 04:33:53;;;;;;;1.60;1.50;;;;;;;2.02;96.88;99431.63;5072839;28;20480;-68
2020/12/12 04:36:19;;;;;;;1.80;0.90;;;;;;;2.00;96.91;99428.47;5072953;28;20996;-69
2020/12/12 04:38:46;;;;;;;1.40;1.30;;;;;;;1.97;96.73;99429.00;5073140;28;20483;-68
2020/12/12 04:41:13;;;;;;;0.93;0.93;;;;;;;2.03;96.93;99427.91;5073189;28;20505;-70
2020/12/12 04:43:40;;;;;;;0.90;0.90;;;;;;;2.03;97.66;99425.22;5072715;28;20477;-69
2020/12/12 04:46:07;;;;;;;4.90;1.43;;;;;;;2.01;98.13;99430.84;5073023;28;20481;-70
2020/12/12 04:48:33;;;;;;;3.33;3.13;;;;;;;2.09;98.38;99421.47;5073145;28;20443;-70
2020/12/12 04:50:59;;;;;;;3.17;1.27;;;;;;;2.06;98.42;99424.69;5073141;28;20433;-70
2020/12/12 04:53:26;;;;;;;2.00;1.57;;;;;;;2.13;98.62;99432.41;5072940;28;20459;-70
2020/12/12 04:55:55;;;;;;;16.13;2.13;;;;;;;2.12;98.23;99428.13;5073084;28;20444;-70
2020/12/12 04:58:23;;;;;;;0.70;0.70;;;;;;;2.10;98.47;99430.28;5075271;28;20493;-70
2020/12/12 05:00:51;;;;;;;0.60;0.60;;;;;;;2.09;98.62;99429.50;5076866;28;20426;-70
2020/12/12 05:03:19;;;;;;;2.10;1.43;;;;;;;2.12;98.32;99428.91;5077045;28;20489;-70
2020/12/12 05:05:45;;;;;;;0.40;0.40;;;;;;;2.11;98.41;99432.66;5077036;28;20813;-70
2020/12/12 05:08:12;;;;;;;11.43;1.87;;;;;;;2.12;98.64;99434.25;5076723;28;20437;-70
2020/12/12 05:10:40;;;;;;;0.83;0.70;;;;;;;2.15;98.41;99439.06;5076936;28;20497;-70
2020/12/12 05:13:17;;;;;;;0.73;0.67;;;;;;;2.11;98.53;99435.34;5076578;28;20467;-70
2020/12/12 05:15:45;;;;;;;1.43;1.13;;;;;;;2.14;97.87;99434.81;5076924;28;20514;-70
2020/12/12 05:18:12;;;;;;;0.87;0.87;;;;;;;2.09;97.67;99434.03;5076496;28;20468;-70
2020/12/12 05:20:39;;;;;;;1.63;1.03;;;;;;;2.08;97.85;99435.91;5076795;28;20494;-70
2020/12/12 05:23:12;;;;;;;2.43;2.33;;;;;;;2.07;97.80;99439.63;5076352;28;20809;-70
2020/12/12 05:25:39;;;;;;;1.57;1.47;;;;;;;2.03;97.38;99431.34;5076628;28;20483;-70
2020/12/12 05:28:06;;;;;;;0.40;0.30;;;;;;;1.99;97.86;99443.69;5076326;28;20473;-70
2020/12/12 05:30:34;;;;;;;1.90;0.97;;;;;;;2.00;97.67;99442.59;5076708;28;20433;-70
2020/12/12 05:33:01;;;;;;;0.53;0.53;;;;;;;2.03;97.41;99441.25;5076368;28;20465;-70
2020/12/12 05:35:27;;;;;;;1.67;1.57;;;;;;;1.96;97.61;99440.75;5076544;28;20493;-68
2020/12/12 05:37:54;;;;;;;2.97;1.13;;;;;;;1.95;97.75;99444.50;5076418;28;20447;-68
2020/12/12 05:40:20;;;;;;;6.03;2.50;;;;;;;1.93;98.10;99443.97;5076426;28;20780;-68
2020/12/12 05:42:47;;;;;;;1.23;0.70;;;;;;;1.97;97.71;99448.47;5076116;28;20489;-68
2020/12/12 05:45:14;;;;;;;4.13;0.97;;;;;;;2.00;98.06;99449.81;5076327;28;20854;-68
2020/12/12 05:47:41;;;;;;;4.47;0.97;;;;;;;1.99;98.81;99453.53;5076214;28;20539;-68
2020/12/12 05:50:07;;;;;;;1.43;0.60;;;;;;;1.99;99.07;99458.88;5076324;28;20506;-68
2020/12/12 05:52:35;;;;;;;0.60;0.50;;;;;;;1.98;99.81;99454.63;5076141;28;20446;-68
2020/12/12 05:55:02;;;;;;;0.50;0.50;;;;;;;1.99;99.69;99457.03;5076110;28;20923;-68
2020/12/12 05:57:28;;;;;;;2.20;2.00;;;;;;;2.08;99.30;99451.09;5075760;28;20923;-68
2020/12/12 05:59:55;;;;;;;0.40;0.40;;;;;;;2.06;99.42;99453.25;5075717;28;20433;-68
2020/12/12 06:02:25;;;;;;;0.60;0.60;;;;;;;2.03;99.29;99449.25;5075920;28;20441;-69
2020/12/12 06:04:53;;;;;;;0.67;0.67;;;;;;;2.03;99.33;99457.25;5075713;28;20422;-68
2020/12/12 06:07:28;;;;;;;0.70;0.70;;;;;;;2.05;99.52;99447.13;5075481;28;21057;-71
2020/12/12 06:09:58;;;;;;;5.67;3.03;;;;;;;2.05;99.29;99457.81;5074517;28;20461;-68
2020/12/12 06:12:25;;;;;;;1.70;1.50;;;;;;;2.07;98.86;99458.31;5075512;28;20427;-69
2020/12/12 06:14:55;;;;;;;0.97;0.77;;;;;;;2.07;99.06;99463.66;5075798;28;20444;-68
2020/12/12 06:17:36;;;;;;;29.47;2.57;;;;;;;2.01;98.60;99462.09;5075126;28;20455;-68
2020/12/12 06:20:05;;;;;;;2.43;1.83;;;;;;;2.02;98.05;99458.34;5075361;28;20991;-68
2020/12/12 06:22:32;;;;;;;3.47;1.83;;;;;;;2.00;98.17;99449.81;5075484;28;20445;-68
2020/12/12 06:25:00;;;;;;;1.13;0.90;;;;;;;1.91;97.63;99459.47;5075587;28;20480;-69
2020/12/12 06:27:37;;;;;;;0.97;0.97;;;;;;;1.90;97.67;99465.84;5075478;28;20504;-69
2020/12/12 06:30:06;;;;;;;5.60;1.53;;;;;;;1.86;97.66;99452.28;5075194;28;20422;-69
2020/12/12 06:32:32;;;;;;;0.40;0.40;;;;;;;1.87;97.91;99455.72;5075264;28;20441;-69
2020/12/12 06:34:58;;;;;;;3.37;2.10;;;;;;;1.90;97.98;99455.16;5075248;28;20479;-69
2020/12/12 06:37:27;;;;;;;3.10;2.30;;;;;;;1.84;98.31;99462.41;5075700;28;20468;-68
2020/12/12 06:39:53;;;;;;;0.57;0.57;;;;;;;1.88;98.58;99462.66;5075296;28;20452;-68
2020/12/12 06:42:35;;;;;;;1.33;0.70;;;;;;;1.83;98.37;99462.69;5075244;28;20470;-69
2020/12/12 06:45:04;;;;;;;1.60;1.50;;;;;;;1.85;98.69;99463.19;5075176;28;20484;-69
2020/12/12 06:47:38;;;;;;;3.17;2.00;;;;;;;1.86;97.96;99464.78;5074802;28;21055;-69
2020/12/12 06:50:07;;;;;;;9.73;2.10;;;;;;;1.86;98.31;99464.78;5075126;28;20441;-68
2020/12/12 06:52:34;;;;;;;1.63;0.93;;;;;;;1.80;98.27;99464.00;5074993;28;20499;-69
2020/12/12 06:55:05;;;;;;;14.40;4.03;;;;;;;1.86;98.76;99464.78;5075052;28;20507;-69
2020/12/12 06:57:37;;;;;;;1.00;1.00;;;;;;;1.84;99.20;99472.28;5074725;28;20425;-68
2020/12/12 07:00:07;;;;;;;0.90;0.90;;;;;;;1.88;99.26;99473.34;5074916;28;20426;-68
2020/12/12 07:02:33;;;;;;;0.70;0.60;;;;;;;1.86;99.31;99470.97;5074749;28;20445;-68
2020/12/12 07:05:17;;;;;;;1.77;1.43;;;;;;;1.93;99.13;99473.31;5074788;28;20490;-68
2020/12/12 07:07:45;;;;;;;2.67;0.70;;;;;;;1.94;99.13;99475.72;5074729;28;20503;-68
2020/12/12 07:10:11;;;;;;;0.93;0.50;;;;;;;1.96;99.03;99475.47;5074388;28;20437;-67
2020/12/12 07:12:37;;;;;;;1.07;1.03;;;;;;;1.96;99.06;99481.59;5074302;28;20479;-68
2020/12/12 07:15:04;;;;;;;5.57;2.57;;;;;;;1.98;98.99;99489.31;5074587;28;20433;-68
2020/12/12 07:17:30;;;;;;;1.53;1.07;;;;;;;2.04;98.83;99485.59;5074564;28;20432;-68
2020/12/12 07:19:56;;;;;;;5.07;1.83;;;;;;;2.04;98.73;99485.59;5074280;28;20440;-68
2020/12/12 07:22:22;;;;;;;0.57;0.57;;;;;;;2.07;98.67;99485.03;5074330;28;20441;-69
2020/12/12 07:24:49;;;;;;;1.73;1.63;;;;;;;2.08;98.80;99489.31;5074475;28;20484;-69
2020/12/12 07:27:16;;;;;;;1.60;1.50;;;;;;;2.03;98.54;99492.78;5074284;28;20898;-69
2020/12/12 07:29:42;;;;;;;0.40;0.30;;;;;;;2.09;98.61;99492.78;5074305;28;20487;-68
2020/12/12 07:32:08;;;;;;;14.37;1.80;;;;;;;2.05;98.59;99494.41;5073876;28;21008;-68
2020/12/12 07:34:34;;;;;;;1.07;1.07;;;;;;;2.09;98.80;99501.59;5100315;22;20490;-78
2020/12/12 07:37:03;;;;;;;1.60;1.33;;;;;;;2.13;98.26;99505.31;5076101;28;20447;-77
2020/12/12 07:39:31;;;;;;;5.60;1.43;;;;;;;2.14;97.94;99503.44;5075461;28;20873;-77
2020/12/12 07:41:59;;;;;;;1.57;1.30;;;;;;;2.17;97.37;99508.22;5075996;28;20526;-77
2020/12/12 07:44:27;;;;;;;0.50;0.50;;;;;;;2.18;97.66;99518.66;5075910;28;20439;-77
2020/12/12 07:46:58;;;;;;;2.47;2.30;;;;;;;2.19;97.92;99514.91;5075784;28;20996;-77
2020/12/12 07:49:24;;;;;;;1.50;1.00;;;;;;;2.24;97.48;99517.56;5075285;28;20499;-77
2020/12/12 07:52:05;;;;;;;0.60;0.50;;;;;;;2.26;97.01;99523.44;5075551;28;20517;-77
2020/12/12 07:54:34;;;;;;;3.63;0.90;;;;;;;2.32;96.46;99526.91;5074610;28;20877;-77
2020/12/12 07:57:03;;;;;;;2.43;1.93;;;;;;;2.32;95.84;99531.44;5075185;28;20524;-77
2020/12/12 07:59:30;;;;;;;1.03;0.83;;;;;;;2.34;95.28;99529.28;5074360;28;20460;-76
2020/12/12 08:02:04;;;;;;;0.53;0.50;;;;;;;2.34;95.04;99534.63;5075456;28;20497;-77
2020/12/12 08:04:30;;;;;;;0.67;0.67;;;;;;;2.36;95.16;99537.84;5074475;28;20433;-76
2020/12/12 08:06:57;;;;;;;1.10;0.73;;;;;;;2.38;94.85;99535.69;5074113;28;20483;-77
2020/12/12 08:09:24;;;;;;;2.27;1.10;;;;;;;2.39;94.88;99543.44;5074514;28;20433;-76
2020/12/12 08:11:58;;;;;;;0.40;0.40;;;;;;;2.39;94.67;99539.94;5073822;28;20869;-76
2020/12/12 08:14:27;;;;;;;2.30;2.00;;;;;;;2.39;95.13;99543.44;5074038;28;20491;-76
2020/12/12 08:16:56;;;;;;;7.20;1.60;;;;;;;2.41;94.74;99551.97;5074282;28;20502;-76
2020/12/12 08:19:22;;;;;;;1.13;1.03;;;;;;;2.44;94.42;99550.66;5073732;28;20510;-77
2020/12/12 08:21:52;;;;;;;0.60;0.60;;;;;;;2.44;94.79;99556.00;5073849;28;20465;-77
2020/12/12 08:24:19;;;;;;;0.70;0.70;;;;;;;2.40;95.72;99553.06;5074109;28;20468;-77
2020/12/12 08:26:45;;;;;;;6.50;2.40;;;;;;;2.43;96.03;99562.38;5074162;28;20487;-77
2020/12/12 08:29:12;;;;;;;2.00;0.70;;;;;;;2.43;96.25;99565.84;5073519;28;20445;-76
2020/12/12 08:31:40;;;;;;;3.80;1.07;;;;;;;2.46;96.19;99559.97;5073515;28;20467;-76
2020/12/12 08:34:07;;;;;;;2.97;2.70;;;;;;;2.54;96.24;99563.97;5073394;28;20460;-77
2020/12/12 08:36:35;;;;;;;2.50;1.67;;;;;;;2.61;95.89;99563.66;5074027;28;20445;-76
2020/12/12 08:39:05;;;;;;;1.20;1.10;;;;;;;2.66;95.63;99558.31;5073751;28;20495;-75
2020/12/12 08:41:34;;;;;;;4.10;2.83;;;;;;;2.68;95.67;99559.63;5073311;28;20544;-76
2020/12/12 08:44:01;;;;;;;1.73;1.63;;;;;;;2.67;95.55;99571.41;5073872;28;20501;-76
2020/12/12 08:46:27;;;;;;;1.53;1.43;;;;;;;2.65;95.47;99573.53;5073763;28;20716;-76
2020/12/12 08:48:55;;;;;;;0.57;0.57;;;;;;;2.66;95.65;99580.50;5073927;28;20434;-76
2020/12/12 08:51:26;;;;;;;3.00;1.73;;;;;;;2.68;95.33;99575.66;5073800;28;20448;-75
2020/12/12 08:53:53;;;;;;;2.33;1.50;;;;;;;2.68;95.41;99582.91;5073663;28;20972;-76
2020/12/12 08:56:28;;;;;;;0.90;0.60;;;;;;;2.69;95.52;99582.59;5073267;28;20441;-76
2020/12/12 08:58:57;;;;;;;3.37;1.60;;;;;;;2.75;95.12;99584.22;5073785;28;20452;-76
2020/12/12 09:01:32;;;;;;;2.83;2.63;;;;;;;2.81;95.05;99584.97;5073552;28;20472;-76
2020/12/12 09:04:22;;;;;;;4.30;3.23;;;;;;;2.85;94.98;99588.69;5073316;28;20534;-76
2020/12/12 09:06:50;;;;;;;0.40;0.33;;;;;;;2.87;94.71;99596.44;5073529;28;20469;-76
2020/12/12 09:09:18;;;;;;;2.40;1.80;;;;;;;2.84;94.89;99592.47;5073100;28;20449;-76
2020/12/12 09:11:46;;;;;;;0.90;0.80;;;;;;;2.87;94.70;99597.25;5073668;28;20460;-76
2020/12/12 09:14:12;;;;;;;1.83;0.90;;;;;;;2.93;94.79;99600.72;5073364;28;20487;-76
2020/12/12 09:16:39;;;;;;;1.97;1.73;;;;;;;2.91;94.46;99595.63;5073510;28;20441;-76
2020/12/12 09:19:06;;;;;;;1.73;1.63;;;;;;;2.90;94.61;99598.56;5073512;28;20438;-75
2020/12/12 09:21:34;;;;;;;0.90;0.73;;;;;;;2.95;94.33;99602.03;5073181;28;20487;-76
2020/12/12 09:24:01;;;;;;;1.60;1.50;;;;;;;2.90;94.83;99606.59;5073478;28;20456;-76
2020/12/12 09:26:27;;;;;;;1.03;0.90;;;;;;;2.89;94.46;99608.47;5073378;28;20441;-77
2020/12/12 09:28:53;;;;;;;0.60;0.60;;;;;;;2.91;94.27;99602.84;5073468;28;20441;-76
2020/12/12 09:31:21;;;;;;;0.93;0.83;;;;;;;2.89;94.74;99605.00;5073512;28;20461;-76
2020/12/12 09:33:48;;;;;;;3.63;1.23;;;;;;;2.90;94.63;99611.94;5073265;28;20455;-76
2020/12/12 09:36:14;;;;;;;3.77;3.40;;;;;;;2.88;94.60;99612.22;5073403;28;20437;-76
2020/12/12 09:38:41;;;;;;;3.80;1.60;;;;;;;2.89;94.24;99623.72;5072884;28;20805;-75
2020/12/12 09:41:08;;;;;;;0.50;0.50;;;;;;;2.88;94.44;99612.22;5072864;28;20510;-75
2020/12/12 09:43:34;;;;;;;2.27;2.17;;;;;;;2.83;93.76;99622.94;5073954;28;20503;-76
2020/12/12 09:46:00;;;;;;;0.63;0.63;;;;;;;2.73;93.01;99621.09;5076973;28;20445;-75
2020/12/12 09:48:27;;;;;;;7.30;2.53;;;;;;;2.70;93.00;99623.50;5076734;28;20484;-75
2020/12/12 09:50:53;;;;;;;0.60;0.60;;;;;;;2.68;92.48;99621.13;5076643;28;20461;-75
2020/12/12 09:53:20;;;;;;;2.10;1.90;;;;;;;2.63;92.40;99629.16;5076850;28;20447;-75
2020/12/12 09:55:47;;;;;;;1.10;0.80;;;;;;;2.63;92.66;99629.16;5077518;28;20440;-75
2020/12/12 09:58:13;;;;;;;4.93;3.30;;;;;;;2.67;92.90;99626.75;5077063;28;20443;-75
2020/12/12 10:00:41;;;;;;;4.23;2.03;;;;;;;2.64;93.28;99632.63;5077156;28;20506;-75
2020/12/12 10:03:08;;;;;;;2.10;2.00;;;;;;;2.61;93.05;99628.66;5076889;28;20445;-74
2020/12/12 10:05:35;;;;;;;7.60;3.40;;;;;;;2.61;93.47;99625.97;5076602;28;20514;-75
2020/12/12 10:08:02;;;;;;;8.10;3.00;;;;;;;2.62;94.20;99627.56;5076616;28;20485;-76
2020/12/12 10:10:29;;;;;;;0.53;0.53;;;;;;;2.60;94.99;99626.22;5076561;28;20448;-75
2020/12/12 10:12:56;;;;;;;1.77;0.80;;;;;;;2.58;95.15;99629.19;5076721;28;20449;-75
2020/12/12 10:15:23;;;;;;;3.03;1.30;;;;;;;2.67;95.01;99637.44;5076726;28;20445;-76
2020/12/12 10:17:51;;;;;;;2.37;2.07;;;;;;;2.69;94.83;99641.44;5076320;28;20457;-76
2020/12/12 10:20:18;;;;;;;2.10;1.50;;;;;;;2.74;94.10;99635.25;5076244;28;20437;-76
2020/12/12 10:22:44;;;;;;;1.90;1.80;;;;;;;2.81;93.87;99645.69;5076440;28;20489;-76
2020/12/12 10:25:10;;;;;;;1.73;1.63;;;;;;;2.91;93.36;99645.63;5076557;28;20784;-76
2020/12/12 10:27:38;;;;;;;0.97;0.97;;;;;;;2.93;92.62;99638.16;5076123;28;20541;-75
2020/12/12 10:30:07;;;;;;;2.77;2.57;;;;;;;2.99;92.84;99642.41;5076340;28;20500;-76
2020/12/12 10:32:34;;;;;;;1.77;1.67;;;;;;;3.07;92.57;99643.72;5076439;28;20491;-76
2020/12/12 10:35:01;;;;;;;5.30;1.83;;;;;;;3.16;92.09;99642.84;5076407;28;20505;-76
2020/12/12 10:37:27;;;;;;;1.93;0.70;;;;;;;3.20;92.19;99641.22;5076576;28;20499;-75
2020/12/12 10:39:57;;;;;;;0.40;0.40;;;;;;;3.20;92.56;99649.25;5076671;28;20459;-76
2020/12/12 10:42:23;;;;;;;1.37;1.27;;;;;;;3.34;91.91;99644.09;5076081;28;20469;-77
2020/12/12 10:44:50;;;;;;;4.40;2.00;;;;;;;3.45;91.51;99634.13;5076708;28;20430;-76
2020/12/12 10:47:17;;;;;;;1.30;1.20;;;;;;;3.60;91.24;99647.44;5077021;28;20903;-76
2020/12/12 10:49:43;;;;;;;3.40;3.20;;;;;;;3.66;90.64;99642.84;5076023;28;20515;-75
2020/12/12 10:52:09;;;;;;;2.10;1.43;;;;;;;3.79;90.09;99643.00;5075161;28;20845;-76
2020/12/12 10:54:35;;;;;;;5.50;1.50;;;;;;;3.89;89.33;99639.44;5075540;28;20471;-76
2020/12/12 10:57:02;;;;;;;3.17;2.47;;;;;;;3.97;88.70;99640.72;5075293;28;20455;-76
2020/12/12 10:59:28;;;;;;;4.60;3.33;;;;;;;4.08;88.15;99636.91;5075740;28;21020;-76
2020/12/12 11:01:55;;;;;;;2.87;1.77;;;;;;;4.22;87.54;99635.16;5075630;28;20461;-76
2020/12/12 11:04:23;;;;;;;2.50;2.23;;;;;;;4.30;87.54;99637.22;5075962;28;20473;-75
2020/12/12 11:06:50;;;;;;;3.70;1.07;;;;;;;4.34;87.46;99625.91;5075414;28;20481;-76
2020/12/12 11:09:16;;;;;;;1.27;1.17;;;;;;;4.36;86.54;99634.50;5075606;28;20500;-76
2020/12/12 11:11:42;;;;;;;0.67;0.67;;;;;;;4.43;87.44;99633.09;5075899;28;20499;-76
2020/12/12 11:14:10;;;;;;;2.80;2.50;;;;;;;4.53;87.43;99627.59;5075527;28;20498;-76
2020/12/12 11:16:36;;;;;;;3.20;1.70;;;;;;;4.50;87.50;99632.75;5075457;28;20490;-76
2020/12/12 11:19:03;;;;;;;0.60;0.60;;;;;;;4.53;87.47;99634.84;5075497;28;20449;-76
2020/12/12 11:21:30;;;;;;;1.10;0.80;;;;;;;4.44;87.42;99625.84;5075131;28;20518;-76
2020/12/12 11:23:56;;;;;;;1.27;1.17;;;;;;;4.28;87.78;99634.00;5074724;28;20548;-76
2020/12/12 11:26:23;;;;;;;1.50;1.40;;;;;;;4.25;88.21;99636.44;5075013;28;20453;-77
2020/12/12 11:28:50;;;;;;;4.53;3.30;;;;;;;4.28;88.30;99636.69;5075244;28;20534;-77
2020/12/12 11:31:18;;;;;;;2.40;1.67;;;;;;;4.41;88.24;99639.81;5080684;28;20488;-78
2020/12/12 11:33:46;;;;;;;1.90;1.60;;;;;;;4.53;87.86;99637.53;5080291;28;20449;-78
2020/12/12 11:36:23;;;;;;;1.33;0.93;;;;;;;4.68;87.42;99633.88;5081737;28;20460;-79
2020/12/12 11:38:56;;;;;;;11.23;2.93;;;;;;;5.15;86.35;99634.94;5081670;28;20480;-77
2020/12/12 11:41:40;;;;;;;4.73;1.90;;;;;;;5.60;84.08;99638.88;5080709;28;20462;-78
2020/12/12 11:44:38;;;;;;;4.33;1.00;;;;;;;5.96;81.47;99641.06;5082504;28;20426;-77